sensor_id;sensor_type;location;lat;lon;timestamp;P1;durP1;ratioP1;P2;durP2;ratioP2
16963;SDS011;8598;50.508;10.436;2022-12-01T00:00:30;34.77;;;16.37;;
16963;SDS011;8598;50.508;10.436;2022-12-01T00:02:57;32.80;;;16.70;;
16963;SDS011;8598;50.508;10.436;2022-12-01T00:05:25;34.83;;;17.23;;
16963;SDS011;8598;50.508;10.436;2022-12-01T00:07:52;33.97;;;18.60;;
16963;SDS011;8598;50.508;10.436;2022-12-01T00:10:19;34.23;;;16.60;;
16963;SDS011;8598;50.508;10.436;2022-12-01T00:12:51;35.70;;;17.13;;
16963;SDS011;8598;50.508;10.436;2022-12-01T00:15:18;35.60;;;16.50;;
16963;SDS011;8598;50.508;10.436;2022-12-01T00:17:45;37.37;;;18.57;;
16963;SDS011;8598;50.508;10.436;2022-12-01T00:20:12;33.47;;;16.83;;
16963;SDS011;8598;50.508;10.436;2022-12-01T00:22:42;34.27;;;16.83;;
16963;SDS011;8598;50.508;10.436;2022-12-01T00:25:09;37.47;;;17.70;;
16963;SDS011;8598;50.508;10.436;2022-12-01T00:27:36;39.43;;;18.70;;
16963;SDS011;8598;50.508;10.436;2022-12-01T00:30:03;32.53;;;17.17;;
16963;SDS011;8598;50.508;10.436;2022-12-01T00:32:31;30.00;;;16.53;;
16963;SDS011;8598;50.508;10.436;2022-12-01T00:34:58;35.80;;;16.97;;
16963;SDS011;8598;50.508;10.436;2022-12-01T00:37:25;35.73;;;17.23;;
16963;SDS011;8598;50.508;10.436;2022-12-01T00:39:55;29.23;;;14.53;;
16963;SDS011;8598;50.508;10.436;2022-12-01T00:42:22;32.73;;;17.23;;
16963;SDS011;8598;50.508;10.436;2022-12-01T00:44:49;32.43;;;17.73;;
16963;SDS011;8598;50.508;10.436;2022-12-01T00:47:16;32.10;;;16.17;;
16963;SDS011;8598;50.508;10.436;2022-12-01T00:49:43;36.40;;;17.57;;
16963;SDS011;8598;50.508;10.436;2022-12-01T00:52:10;33.67;;;17.20;;
16963;SDS011;8598;50.508;10.436;2022-12-01T00:54:37;34.00;;;16.97;;
16963;SDS011;8598;50.508;10.436;2022-12-01T00:57:06;35.27;;;17.23;;
16963;SDS011;8598;50.508;10.436;2022-12-01T00:59:32;33.77;;;17.47;;
16963;SDS011;8598;50.508;10.436;2022-12-01T01:01:59;30.13;;;16.77;;
16963;SDS011;8598;50.508;10.436;2022-12-01T01:04:28;34.27;;;16.87;;
16963;SDS011;8598;50.508;10.436;2022-12-01T01:06:54;31.23;;;15.43;;
16963;SDS011;8598;50.508;10.436;2022-12-01T01:09:21;33.07;;;17.43;;
16963;SDS011;8598;50.508;10.436;2022-12-01T01:11:49;30.60;;;16.57;;
16963;SDS011;8598;50.508;10.436;2022-12-01T01:14:18;33.50;;;16.83;;
16963;SDS011;8598;50.508;10.436;2022-12-01T01:16:45;33.07;;;16.43;;
16963;SDS011;8598;50.508;10.436;2022-12-01T01:19:11;31.40;;;16.07;;
16963;SDS011;8598;50.508;10.436;2022-12-01T01:21:38;30.10;;;16.47;;
16963;SDS011;8598;50.508;10.436;2022-12-01T01:24:05;31.43;;;15.63;;
16963;SDS011;8598;50.508;10.436;2022-12-01T01:26:32;28.30;;;15.80;;
16963;SDS011;8598;50.508;10.436;2022-12-01T01:29:03;35.17;;;17.07;;
16963;SDS011;8598;50.508;10.436;2022-12-01T01:31:33;33.20;;;15.13;;
16963;SDS011;8598;50.508;10.436;2022-12-01T01:34:00;29.43;;;15.57;;
16963;SDS011;8598;50.508;10.436;2022-12-01T01:36:29;27.30;;;15.43;;
16963;SDS011;8598;50.508;10.436;2022-12-01T01:38:56;32.63;;;15.73;;
16963;SDS011;8598;50.508;10.436;2022-12-01T01:41:23;28.73;;;14.83;;
16963;SDS011;8598;50.508;10.436;2022-12-01T01:43:51;30.63;;;15.40;;
16963;SDS011;8598;50.508;10.436;2022-12-01T01:46:19;32.40;;;16.70;;
16963;SDS011;8598;50.508;10.436;2022-12-01T01:48:49;30.03;;;16.17;;
16963;SDS011;8598;50.508;10.436;2022-12-01T01:51:20;31.47;;;16.17;;
16963;SDS011;8598;50.508;10.436;2022-12-01T01:53:49;32.47;;;16.83;;
16963;SDS011;8598;50.508;10.436;2022-12-01T01:56:20;28.83;;;15.57;;
16963;SDS011;8598;50.508;10.436;2022-12-01T01:58:48;28.70;;;14.23;;
16963;SDS011;8598;50.508;10.436;2022-12-01T02:01:15;30.63;;;15.63;;
16963;SDS011;8598;50.508;10.436;2022-12-01T02:03:42;29.90;;;15.87;;
16963;SDS011;8598;50.508;10.436;2022-12-01T02:06:11;28.30;;;15.77;;
16963;SDS011;8598;50.508;10.436;2022-12-01T02:08:38;26.30;;;14.00;;
16963;SDS011;8598;50.508;10.436;2022-12-01T02:14:15;27.30;;;14.40;;
16963;SDS011;8598;50.508;10.436;2022-12-01T02:16:58;27.80;;;14.87;;
16963;SDS011;8598;50.508;10.436;2022-12-01T02:19:37;35.40;;;15.70;;
16963;SDS011;8598;50.508;10.436;2022-12-01T02:22:16;23.17;;;13.07;;
16963;SDS011;8598;50.508;10.436;2022-12-01T02:28:05;18.03;;;9.80;;
16963;SDS011;8598;50.508;10.436;2022-12-01T02:30:51;17.73;;;10.90;;
16963;SDS011;8598;50.508;10.436;2022-12-01T02:33:22;17.87;;;11.27;;
16963;SDS011;8598;50.508;10.436;2022-12-01T02:35:58;20.33;;;11.47;;
16963;SDS011;8598;50.508;10.436;2022-12-01T02:38:29;21.73;;;10.80;;
16963;SDS011;8598;50.508;10.436;2022-12-01T02:41:04;22.00;;;11.53;;
16963;SDS011;8598;50.508;10.436;2022-12-01T02:43:39;19.87;;;12.33;;
16963;SDS011;8598;50.508;10.436;2022-12-01T02:46:12;18.73;;;10.80;;
16963;SDS011;8598;50.508;10.436;2022-12-01T02:48:43;21.10;;;11.77;;
16963;SDS011;8598;50.508;10.436;2022-12-01T02:51:15;20.40;;;11.07;;
16963;SDS011;8598;50.508;10.436;2022-12-01T02:53:45;22.33;;;12.27;;
16963;SDS011;8598;50.508;10.436;2022-12-01T02:56:12;20.57;;;11.37;;
16963;SDS011;8598;50.508;10.436;2022-12-01T02:58:40;17.67;;;10.40;;
16963;SDS011;8598;50.508;10.436;2022-12-01T03:01:18;20.23;;;11.97;;
16963;SDS011;8598;50.508;10.436;2022-12-01T03:06:52;19.07;;;10.70;;
16963;SDS011;8598;50.508;10.436;2022-12-01T03:09:24;19.93;;;10.53;;
16963;SDS011;8598;50.508;10.436;2022-12-01T03:12:02;21.57;;;12.00;;
16963;SDS011;8598;50.508;10.436;2022-12-01T03:14:40;20.07;;;11.67;;
16963;SDS011;8598;50.508;10.436;2022-12-01T03:17:14;18.27;;;10.70;;
16963;SDS011;8598;50.508;10.436;2022-12-01T03:19:45;23.87;;;11.87;;
16963;SDS011;8598;50.508;10.436;2022-12-01T03:22:19;21.40;;;11.70;;
16963;SDS011;8598;50.508;10.436;2022-12-01T03:24:50;19.20;;;11.30;;
16963;SDS011;8598;50.508;10.436;2022-12-01T03:27:20;22.40;;;11.97;;
16963;SDS011;8598;50.508;10.436;2022-12-01T03:29:50;20.47;;;12.47;;
16963;SDS011;8598;50.508;10.436;2022-12-01T03:32:22;21.43;;;12.37;;
16963;SDS011;8598;50.508;10.436;2022-12-01T03:34:52;21.70;;;11.83;;
16963;SDS011;8598;50.508;10.436;2022-12-01T03:37:25;21.43;;;11.63;;
16963;SDS011;8598;50.508;10.436;2022-12-01T03:39:56;21.23;;;11.13;;
16963;SDS011;8598;50.508;10.436;2022-12-01T03:42:24;23.97;;;12.33;;
16963;SDS011;8598;50.508;10.436;2022-12-01T03:44:54;21.10;;;11.20;;
16963;SDS011;8598;50.508;10.436;2022-12-01T03:47:27;21.10;;;12.33;;
16963;SDS011;8598;50.508;10.436;2022-12-01T03:49:56;20.70;;;11.23;;
16963;SDS011;8598;50.508;10.436;2022-12-01T03:52:27;20.53;;;10.90;;
16963;SDS011;8598;50.508;10.436;2022-12-01T03:55:06;23.37;;;12.00;;
16963;SDS011;8598;50.508;10.436;2022-12-01T03:57:37;19.67;;;10.97;;
16963;SDS011;8598;50.508;10.436;2022-12-01T04:00:10;22.03;;;12.77;;
16963;SDS011;8598;50.508;10.436;2022-12-01T04:02:40;18.40;;;11.23;;
16963;SDS011;8598;50.508;10.436;2022-12-01T04:05:08;18.23;;;10.93;;
16963;SDS011;8598;50.508;10.436;2022-12-01T04:07:36;22.10;;;12.67;;
16963;SDS011;8598;50.508;10.436;2022-12-01T04:10:04;22.67;;;11.37;;
16963;SDS011;8598;50.508;10.436;2022-12-01T04:12:31;18.70;;;10.90;;
16963;SDS011;8598;50.508;10.436;2022-12-01T04:14:58;21.37;;;11.27;;
16963;SDS011;8598;50.508;10.436;2022-12-01T04:17:26;17.10;;;10.03;;
16963;SDS011;8598;50.508;10.436;2022-12-01T04:19:54;20.97;;;11.27;;
16963;SDS011;8598;50.508;10.436;2022-12-01T04:22:24;15.90;;;9.60;;
16963;SDS011;8598;50.508;10.436;2022-12-01T04:24:51;19.17;;;11.67;;
16963;SDS011;8598;50.508;10.436;2022-12-01T04:27:18;20.37;;;10.47;;
16963;SDS011;8598;50.508;10.436;2022-12-01T04:29:46;23.13;;;11.87;;
16963;SDS011;8598;50.508;10.436;2022-12-01T04:32:12;21.27;;;11.53;;
16963;SDS011;8598;50.508;10.436;2022-12-01T04:34:39;19.80;;;11.13;;
16963;SDS011;8598;50.508;10.436;2022-12-01T04:37:07;21.53;;;11.20;;
16963;SDS011;8598;50.508;10.436;2022-12-01T04:39:36;22.00;;;10.83;;
16963;SDS011;8598;50.508;10.436;2022-12-01T04:42:03;18.40;;;11.23;;
16963;SDS011;8598;50.508;10.436;2022-12-01T04:44:30;22.97;;;12.50;;
16963;SDS011;8598;50.508;10.436;2022-12-01T04:46:57;19.40;;;11.70;;
16963;SDS011;8598;50.508;10.436;2022-12-01T04:49:23;25.47;;;12.23;;
16963;SDS011;8598;50.508;10.436;2022-12-01T04:51:50;20.13;;;11.70;;
16963;SDS011;8598;50.508;10.436;2022-12-01T04:54:19;21.43;;;12.83;;
16963;SDS011;8598;50.508;10.436;2022-12-01T04:56:46;23.53;;;12.10;;
16963;SDS011;8598;50.508;10.436;2022-12-01T04:59:13;22.83;;;11.73;;
16963;SDS011;8598;50.508;10.436;2022-12-01T05:01:39;21.53;;;12.13;;
16963;SDS011;8598;50.508;10.436;2022-12-01T05:04:09;17.60;;;9.80;;
16963;SDS011;8598;50.508;10.436;2022-12-01T05:06:36;19.30;;;10.87;;
16963;SDS011;8598;50.508;10.436;2022-12-01T05:09:03;19.10;;;10.70;;
16963;SDS011;8598;50.508;10.436;2022-12-01T05:11:32;18.13;;;10.50;;
16963;SDS011;8598;50.508;10.436;2022-12-01T05:13:59;20.83;;;11.70;;
16963;SDS011;8598;50.508;10.436;2022-12-01T05:16:26;22.87;;;11.30;;
16963;SDS011;8598;50.508;10.436;2022-12-01T05:18:56;16.83;;;10.03;;
16963;SDS011;8598;50.508;10.436;2022-12-01T05:21:38;19.77;;;10.67;;
16963;SDS011;8598;50.508;10.436;2022-12-01T05:24:06;22.60;;;12.00;;
16963;SDS011;8598;50.508;10.436;2022-12-01T05:26:35;24.07;;;12.33;;
16963;SDS011;8598;50.508;10.436;2022-12-01T05:29:02;27.73;;;12.60;;
16963;SDS011;8598;50.508;10.436;2022-12-01T05:31:29;25.00;;;13.13;;
16963;SDS011;8598;50.508;10.436;2022-12-01T05:33:56;26.53;;;13.03;;
16963;SDS011;8598;50.508;10.436;2022-12-01T05:36:23;18.87;;;11.17;;
16963;SDS011;8598;50.508;10.436;2022-12-01T05:38:50;23.03;;;12.93;;
16963;SDS011;8598;50.508;10.436;2022-12-01T05:41:17;24.50;;;14.10;;
16963;SDS011;8598;50.508;10.436;2022-12-01T05:43:45;23.13;;;13.23;;
16963;SDS011;8598;50.508;10.436;2022-12-01T05:46:12;24.30;;;13.83;;
16963;SDS011;8598;50.508;10.436;2022-12-01T05:48:39;24.97;;;13.07;;
16963;SDS011;8598;50.508;10.436;2022-12-01T05:51:07;25.10;;;12.33;;
16963;SDS011;8598;50.508;10.436;2022-12-01T05:53:35;24.87;;;12.53;;
16963;SDS011;8598;50.508;10.436;2022-12-01T05:56:02;25.70;;;13.03;;
16963;SDS011;8598;50.508;10.436;2022-12-01T05:58:29;22.20;;;11.73;;
16963;SDS011;8598;50.508;10.436;2022-12-01T06:00:58;26.10;;;13.17;;
16963;SDS011;8598;50.508;10.436;2022-12-01T06:03:24;22.47;;;13.23;;
16963;SDS011;8598;50.508;10.436;2022-12-01T06:05:51;24.40;;;12.40;;
16963;SDS011;8598;50.508;10.436;2022-12-01T06:08:18;25.63;;;13.10;;
16963;SDS011;8598;50.508;10.436;2022-12-01T06:10:45;22.77;;;12.97;;
16963;SDS011;8598;50.508;10.436;2022-12-01T06:13:11;21.37;;;12.03;;
16963;SDS011;8598;50.508;10.436;2022-12-01T06:15:38;26.63;;;14.10;;
16963;SDS011;8598;50.508;10.436;2022-12-01T06:18:06;26.23;;;13.53;;
16963;SDS011;8598;50.508;10.436;2022-12-01T06:20:33;25.43;;;13.47;;
16963;SDS011;8598;50.508;10.436;2022-12-01T06:23:00;21.37;;;12.10;;
16963;SDS011;8598;50.508;10.436;2022-12-01T06:25:26;24.53;;;12.73;;
16963;SDS011;8598;50.508;10.436;2022-12-01T06:27:54;25.33;;;13.10;;
16963;SDS011;8598;50.508;10.436;2022-12-01T06:30:21;26.47;;;13.17;;
16963;SDS011;8598;50.508;10.436;2022-12-01T06:32:48;29.90;;;14.23;;
16963;SDS011;8598;50.508;10.436;2022-12-01T06:35:16;29.47;;;13.57;;
16963;SDS011;8598;50.508;10.436;2022-12-01T06:37:43;26.63;;;14.87;;
16963;SDS011;8598;50.508;10.436;2022-12-01T06:40:13;25.60;;;12.80;;
16963;SDS011;8598;50.508;10.436;2022-12-01T06:42:39;28.33;;;13.50;;
16963;SDS011;8598;50.508;10.436;2022-12-01T06:45:07;26.10;;;13.73;;
16963;SDS011;8598;50.508;10.436;2022-12-01T06:47:34;28.33;;;13.73;;
16963;SDS011;8598;50.508;10.436;2022-12-01T06:50:01;28.83;;;14.37;;
16963;SDS011;8598;50.508;10.436;2022-12-01T06:52:30;28.07;;;14.97;;
16963;SDS011;8598;50.508;10.436;2022-12-01T06:54:57;25.77;;;13.00;;
16963;SDS011;8598;50.508;10.436;2022-12-01T06:57:24;29.13;;;14.50;;
16963;SDS011;8598;50.508;10.436;2022-12-01T06:59:51;28.63;;;15.23;;
16963;SDS011;8598;50.508;10.436;2022-12-01T07:02:18;26.77;;;14.10;;
16963;SDS011;8598;50.508;10.436;2022-12-01T07:04:44;26.60;;;14.03;;
16963;SDS011;8598;50.508;10.436;2022-12-01T07:07:11;26.43;;;13.57;;
16963;SDS011;8598;50.508;10.436;2022-12-01T07:09:39;27.57;;;13.70;;
16963;SDS011;8598;50.508;10.436;2022-12-01T07:12:06;26.73;;;14.10;;
16963;SDS011;8598;50.508;10.436;2022-12-01T07:14:33;26.50;;;13.83;;
16963;SDS011;8598;50.508;10.436;2022-12-01T07:17:00;25.53;;;13.80;;
16963;SDS011;8598;50.508;10.436;2022-12-01T07:19:26;28.60;;;14.83;;
16963;SDS011;8598;50.508;10.436;2022-12-01T07:21:53;29.73;;;14.30;;
16963;SDS011;8598;50.508;10.436;2022-12-01T07:24:20;30.43;;;14.30;;
16963;SDS011;8598;50.508;10.436;2022-12-01T07:26:48;31.97;;;15.80;;
16963;SDS011;8598;50.508;10.436;2022-12-01T07:29:15;29.50;;;14.57;;
16963;SDS011;8598;50.508;10.436;2022-12-01T07:31:41;29.10;;;15.43;;
16963;SDS011;8598;50.508;10.436;2022-12-01T07:34:09;29.73;;;14.57;;
16963;SDS011;8598;50.508;10.436;2022-12-01T07:36:36;34.33;;;14.90;;
16963;SDS011;8598;50.508;10.436;2022-12-01T07:39:03;30.30;;;15.20;;
16963;SDS011;8598;50.508;10.436;2022-12-01T07:41:31;23.83;;;13.90;;
16963;SDS011;8598;50.508;10.436;2022-12-01T07:43:59;29.17;;;15.03;;
16963;SDS011;8598;50.508;10.436;2022-12-01T07:46:26;28.93;;;14.57;;
16963;SDS011;8598;50.508;10.436;2022-12-01T07:48:54;29.87;;;14.97;;
16963;SDS011;8598;50.508;10.436;2022-12-01T07:51:21;28.97;;;14.33;;
16963;SDS011;8598;50.508;10.436;2022-12-01T07:53:50;30.00;;;14.27;;
16963;SDS011;8598;50.508;10.436;2022-12-01T07:56:18;27.30;;;14.33;;
16963;SDS011;8598;50.508;10.436;2022-12-01T07:58:46;23.47;;;13.80;;
16963;SDS011;8598;50.508;10.436;2022-12-01T08:01:14;26.23;;;13.47;;
16963;SDS011;8598;50.508;10.436;2022-12-01T08:03:43;28.57;;;13.57;;
16963;SDS011;8598;50.508;10.436;2022-12-01T08:06:10;29.93;;;13.97;;
16963;SDS011;8598;50.508;10.436;2022-12-01T08:08:37;26.83;;;14.43;;
16963;SDS011;8598;50.508;10.436;2022-12-01T08:11:06;27.63;;;14.07;;
16963;SDS011;8598;50.508;10.436;2022-12-01T08:13:35;28.37;;;14.03;;
16963;SDS011;8598;50.508;10.436;2022-12-01T08:16:03;30.87;;;15.13;;
16963;SDS011;8598;50.508;10.436;2022-12-01T08:18:32;28.60;;;15.30;;
16963;SDS011;8598;50.508;10.436;2022-12-01T08:21:00;29.43;;;15.03;;
16963;SDS011;8598;50.508;10.436;2022-12-01T08:23:27;39.20;;;18.60;;
16963;SDS011;8598;50.508;10.436;2022-12-01T08:25:54;36.23;;;16.77;;
16963;SDS011;8598;50.508;10.436;2022-12-01T08:28:21;36.17;;;16.50;;
16963;SDS011;8598;50.508;10.436;2022-12-01T08:30:48;45.67;;;21.40;;
16963;SDS011;8598;50.508;10.436;2022-12-01T08:33:15;33.13;;;15.60;;
16963;SDS011;8598;50.508;10.436;2022-12-01T08:35:43;34.17;;;17.70;;
16963;SDS011;8598;50.508;10.436;2022-12-01T08:38:09;34.60;;;18.57;;
16963;SDS011;8598;50.508;10.436;2022-12-01T08:40:36;28.60;;;15.77;;
16963;SDS011;8598;50.508;10.436;2022-12-01T08:43:03;31.03;;;15.17;;
16963;SDS011;8598;50.508;10.436;2022-12-01T08:45:30;31.73;;;16.67;;
16963;SDS011;8598;50.508;10.436;2022-12-01T08:47:57;35.37;;;17.10;;
16963;SDS011;8598;50.508;10.436;2022-12-01T08:50:24;32.70;;;16.40;;
16963;SDS011;8598;50.508;10.436;2022-12-01T08:52:52;30.93;;;15.40;;
16963;SDS011;8598;50.508;10.436;2022-12-01T08:55:19;32.13;;;16.50;;
16963;SDS011;8598;50.508;10.436;2022-12-01T08:57:49;33.53;;;15.40;;
16963;SDS011;8598;50.508;10.436;2022-12-01T09:00:16;31.40;;;15.27;;
16963;SDS011;8598;50.508;10.436;2022-12-01T09:02:43;32.80;;;15.17;;
16963;SDS011;8598;50.508;10.436;2022-12-01T09:05:10;30.53;;;14.83;;
16963;SDS011;8598;50.508;10.436;2022-12-01T09:07:37;29.90;;;15.17;;
16963;SDS011;8598;50.508;10.436;2022-12-01T09:10:07;27.07;;;14.10;;
16963;SDS011;8598;50.508;10.436;2022-12-01T09:12:34;29.07;;;14.30;;
16963;SDS011;8598;50.508;10.436;2022-12-01T09:15:01;31.17;;;15.50;;
16963;SDS011;8598;50.508;10.436;2022-12-01T09:17:28;23.87;;;13.70;;
16963;SDS011;8598;50.508;10.436;2022-12-01T09:19:55;27.03;;;14.40;;
16963;SDS011;8598;50.508;10.436;2022-12-01T09:22:22;29.07;;;14.70;;
16963;SDS011;8598;50.508;10.436;2022-12-01T09:24:48;35.00;;;16.63;;
16963;SDS011;8598;50.508;10.436;2022-12-01T09:27:16;31.33;;;14.73;;
16963;SDS011;8598;50.508;10.436;2022-12-01T09:29:43;32.00;;;13.10;;
16963;SDS011;8598;50.508;10.436;2022-12-01T09:32:10;23.97;;;13.80;;
16963;SDS011;8598;50.508;10.436;2022-12-01T09:34:37;36.93;;;15.40;;
16963;SDS011;8598;50.508;10.436;2022-12-01T09:37:03;31.57;;;16.03;;
16963;SDS011;8598;50.508;10.436;2022-12-01T09:39:31;34.53;;;15.17;;
16963;SDS011;8598;50.508;10.436;2022-12-01T09:41:58;29.33;;;14.77;;
16963;SDS011;8598;50.508;10.436;2022-12-01T09:44:33;32.47;;;15.40;;
16963;SDS011;8598;50.508;10.436;2022-12-01T09:47:09;34.60;;;14.77;;
16963;SDS011;8598;50.508;10.436;2022-12-01T09:49:48;29.93;;;15.10;;
16963;SDS011;8598;50.508;10.436;2022-12-01T09:52:19;31.37;;;14.73;;
16963;SDS011;8598;50.508;10.436;2022-12-01T09:54:47;33.60;;;16.10;;
16963;SDS011;8598;50.508;10.436;2022-12-01T09:57:16;29.57;;;15.27;;
16963;SDS011;8598;50.508;10.436;2022-12-01T09:59:52;34.33;;;15.53;;
16963;SDS011;8598;50.508;10.436;2022-12-01T10:02:25;30.77;;;15.80;;
16963;SDS011;8598;50.508;10.436;2022-12-01T10:04:57;27.67;;;14.80;;
16963;SDS011;8598;50.508;10.436;2022-12-01T10:07:26;33.80;;;16.30;;
16963;SDS011;8598;50.508;10.436;2022-12-01T10:09:57;32.67;;;15.80;;
16963;SDS011;8598;50.508;10.436;2022-12-01T10:12:28;36.87;;;16.67;;
16963;SDS011;8598;50.508;10.436;2022-12-01T10:14:59;40.10;;;16.10;;
16963;SDS011;8598;50.508;10.436;2022-12-01T10:17:44;40.33;;;16.33;;
16963;SDS011;8598;50.508;10.436;2022-12-01T10:20:22;39.37;;;16.97;;
16963;SDS011;8598;50.508;10.436;2022-12-01T10:23:02;34.67;;;15.97;;
16963;SDS011;8598;50.508;10.436;2022-12-01T10:25:42;35.47;;;16.43;;
16963;SDS011;8598;50.508;10.436;2022-12-01T10:28:23;31.23;;;17.73;;
16963;SDS011;8598;50.508;10.436;2022-12-01T10:31:02;35.00;;;15.53;;
16963;SDS011;8598;50.508;10.436;2022-12-01T10:33:36;35.07;;;16.17;;
16963;SDS011;8598;50.508;10.436;2022-12-01T10:36:10;33.90;;;15.90;;
16963;SDS011;8598;50.508;10.436;2022-12-01T10:38:37;33.27;;;15.97;;
16963;SDS011;8598;50.508;10.436;2022-12-01T10:41:04;33.07;;;15.10;;
16963;SDS011;8598;50.508;10.436;2022-12-01T10:43:37;34.77;;;16.67;;
16963;SDS011;8598;50.508;10.436;2022-12-01T10:46:13;32.90;;;15.60;;
16963;SDS011;8598;50.508;10.436;2022-12-01T10:48:52;31.10;;;15.70;;
16963;SDS011;8598;50.508;10.436;2022-12-01T10:51:20;33.80;;;16.47;;
16963;SDS011;8598;50.508;10.436;2022-12-01T10:53:48;34.07;;;16.77;;
16963;SDS011;8598;50.508;10.436;2022-12-01T10:56:16;39.13;;;17.57;;
16963;SDS011;8598;50.508;10.436;2022-12-01T10:58:46;37.60;;;18.17;;
16963;SDS011;8598;50.508;10.436;2022-12-01T11:01:16;35.17;;;18.43;;
16963;SDS011;8598;50.508;10.436;2022-12-01T11:03:48;36.00;;;17.47;;
16963;SDS011;8598;50.508;10.436;2022-12-01T11:06:20;36.10;;;17.87;;
16963;SDS011;8598;50.508;10.436;2022-12-01T11:08:54;34.77;;;16.57;;
16963;SDS011;8598;50.508;10.436;2022-12-01T11:11:24;41.70;;;17.47;;
16963;SDS011;8598;50.508;10.436;2022-12-01T11:14:03;34.20;;;17.13;;
16963;SDS011;8598;50.508;10.436;2022-12-01T11:16:35;35.43;;;16.93;;
16963;SDS011;8598;50.508;10.436;2022-12-01T11:19:17;35.23;;;16.53;;
16963;SDS011;8598;50.508;10.436;2022-12-01T11:21:47;35.93;;;16.33;;
16963;SDS011;8598;50.508;10.436;2022-12-01T11:24:18;35.70;;;16.10;;
16963;SDS011;8598;50.508;10.436;2022-12-01T11:26:54;34.93;;;16.47;;
16963;SDS011;8598;50.508;10.436;2022-12-01T11:29:25;34.57;;;15.70;;
16963;SDS011;8598;50.508;10.436;2022-12-01T11:31:57;34.37;;;18.23;;
16963;SDS011;8598;50.508;10.436;2022-12-01T11:34:25;35.67;;;17.47;;
16963;SDS011;8598;50.508;10.436;2022-12-01T11:36:55;38.10;;;18.03;;
16963;SDS011;8598;50.508;10.436;2022-12-01T11:39:25;34.83;;;16.30;;
16963;SDS011;8598;50.508;10.436;2022-12-01T11:41:56;35.77;;;16.87;;
16963;SDS011;8598;50.508;10.436;2022-12-01T11:44:25;36.37;;;17.07;;
16963;SDS011;8598;50.508;10.436;2022-12-01T11:46:52;30.07;;;16.27;;
16963;SDS011;8598;50.508;10.436;2022-12-01T11:49:21;33.43;;;16.10;;
16963;SDS011;8598;50.508;10.436;2022-12-01T11:51:49;33.90;;;17.83;;
16963;SDS011;8598;50.508;10.436;2022-12-01T11:54:17;36.20;;;17.23;;
16963;SDS011;8598;50.508;10.436;2022-12-01T11:56:47;32.97;;;15.67;;
16963;SDS011;8598;50.508;10.436;2022-12-01T11:59:15;34.87;;;16.50;;
16963;SDS011;8598;50.508;10.436;2022-12-01T12:01:49;35.90;;;17.67;;
16963;SDS011;8598;50.508;10.436;2022-12-01T12:04:32;31.73;;;16.07;;
16963;SDS011;8598;50.508;10.436;2022-12-01T12:07:12;31.97;;;16.10;;
16963;SDS011;8598;50.508;10.436;2022-12-01T12:09:50;33.80;;;17.37;;
16963;SDS011;8598;50.508;10.436;2022-12-01T12:12:28;31.27;;;14.87;;
16963;SDS011;8598;50.508;10.436;2022-12-01T12:15:09;35.40;;;16.57;;
16963;SDS011;8598;50.508;10.436;2022-12-01T12:17:48;38.10;;;17.30;;
16963;SDS011;8598;50.508;10.436;2022-12-01T12:20:26;33.63;;;18.07;;
16963;SDS011;8598;50.508;10.436;2022-12-01T12:23:05;34.57;;;15.90;;
16963;SDS011;8598;50.508;10.436;2022-12-01T12:25:45;30.53;;;16.77;;
16963;SDS011;8598;50.508;10.436;2022-12-01T12:28:24;33.50;;;16.87;;
16963;SDS011;8598;50.508;10.436;2022-12-01T12:31:06;33.47;;;18.43;;
16963;SDS011;8598;50.508;10.436;2022-12-01T12:33:55;36.07;;;17.50;;
16963;SDS011;8598;50.508;10.436;2022-12-01T12:36:41;32.87;;;15.40;;
16963;SDS011;8598;50.508;10.436;2022-12-01T12:39:17;29.33;;;14.80;;
16963;SDS011;8598;50.508;10.436;2022-12-01T12:41:59;29.20;;;14.10;;
16963;SDS011;8598;50.508;10.436;2022-12-01T12:44:35;32.37;;;15.70;;
16963;SDS011;8598;50.508;10.436;2022-12-01T12:47:17;26.73;;;13.13;;
16963;SDS011;8598;50.508;10.436;2022-12-01T12:49:53;29.23;;;14.17;;
16963;SDS011;8598;50.508;10.436;2022-12-01T12:52:31;26.83;;;14.00;;
16963;SDS011;8598;50.508;10.436;2022-12-01T12:55:00;26.77;;;13.33;;
16963;SDS011;8598;50.508;10.436;2022-12-01T12:57:34;28.47;;;13.87;;
16963;SDS011;8598;50.508;10.436;2022-12-01T13:00:03;23.83;;;12.93;;
16963;SDS011;8598;50.508;10.436;2022-12-01T13:02:35;24.20;;;12.63;;
16963;SDS011;8598;50.508;10.436;2022-12-01T13:05:07;22.37;;;12.67;;
16963;SDS011;8598;50.508;10.436;2022-12-01T13:07:43;25.47;;;13.83;;
16963;SDS011;8598;50.508;10.436;2022-12-01T13:10:20;23.53;;;12.80;;
16963;SDS011;8598;50.508;10.436;2022-12-01T13:12:55;26.23;;;13.50;;
16963;SDS011;8598;50.508;10.436;2022-12-01T13:15:25;26.03;;;13.97;;
16963;SDS011;8598;50.508;10.436;2022-12-01T13:17:54;24.83;;;14.50;;
16963;SDS011;8598;50.508;10.436;2022-12-01T13:20:27;26.03;;;13.90;;
16963;SDS011;8598;50.508;10.436;2022-12-01T13:23:00;25.43;;;14.40;;
16963;SDS011;8598;50.508;10.436;2022-12-01T13:25:28;29.93;;;13.30;;
16963;SDS011;8598;50.508;10.436;2022-12-01T13:27:59;22.80;;;12.83;;
16963;SDS011;8598;50.508;10.436;2022-12-01T13:30:28;28.13;;;14.03;;
16963;SDS011;8598;50.508;10.436;2022-12-01T13:32:56;26.67;;;13.80;;
16963;SDS011;8598;50.508;10.436;2022-12-01T13:35:26;24.93;;;13.13;;
16963;SDS011;8598;50.508;10.436;2022-12-01T13:38:11;26.47;;;13.33;;
16963;SDS011;8598;50.508;10.436;2022-12-01T13:40:48;23.17;;;11.90;;
16963;SDS011;8598;50.508;10.436;2022-12-01T13:43:35;27.80;;;14.00;;
16963;SDS011;8598;50.508;10.436;2022-12-01T13:46:17;24.40;;;12.73;;
16963;SDS011;8598;50.508;10.436;2022-12-01T13:48:50;24.03;;;12.00;;
16963;SDS011;8598;50.508;10.436;2022-12-01T13:51:18;24.23;;;12.93;;
16963;SDS011;8598;50.508;10.436;2022-12-01T13:53:54;23.43;;;12.00;;
16963;SDS011;8598;50.508;10.436;2022-12-01T13:56:24;23.07;;;12.47;;
16963;SDS011;8598;50.508;10.436;2022-12-01T13:58:59;23.53;;;12.80;;
16963;SDS011;8598;50.508;10.436;2022-12-01T14:01:40;23.37;;;12.63;;
16963;SDS011;8598;50.508;10.436;2022-12-01T14:04:24;23.43;;;11.70;;
16963;SDS011;8598;50.508;10.436;2022-12-01T14:09:49;23.83;;;12.83;;
16963;SDS011;8598;50.508;10.436;2022-12-01T14:12:19;28.60;;;12.97;;
16963;SDS011;8598;50.508;10.436;2022-12-01T14:14:50;23.17;;;12.27;;
16963;SDS011;8598;50.508;10.436;2022-12-01T14:17:24;27.20;;;13.77;;
16963;SDS011;8598;50.508;10.436;2022-12-01T14:19:53;29.00;;;13.00;;
16963;SDS011;8598;50.508;10.436;2022-12-01T14:22:31;25.07;;;12.50;;
16963;SDS011;8598;50.508;10.436;2022-12-01T14:25:03;29.57;;;13.67;;
16963;SDS011;8598;50.508;10.436;2022-12-01T14:27:34;31.90;;;13.40;;
16963;SDS011;8598;50.508;10.436;2022-12-01T14:33:42;27.10;;;13.40;;
16963;SDS011;8598;50.508;10.436;2022-12-01T14:36:19;27.33;;;13.20;;
16963;SDS011;8598;50.508;10.436;2022-12-01T14:38:52;24.50;;;12.73;;
16963;SDS011;8598;50.508;10.436;2022-12-01T14:41:29;24.43;;;13.43;;
16963;SDS011;8598;50.508;10.436;2022-12-01T14:44:00;25.53;;;13.20;;
16963;SDS011;8598;50.508;10.436;2022-12-01T14:46:32;23.73;;;12.60;;
16963;SDS011;8598;50.508;10.436;2022-12-01T14:49:07;26.30;;;13.50;;
16963;SDS011;8598;50.508;10.436;2022-12-01T14:51:38;26.33;;;12.73;;
16963;SDS011;8598;50.508;10.436;2022-12-01T14:54:13;30.93;;;14.17;;